Time;durP1;ratioP1;P1;durP2;ratioP2;P2;SDS_P1;SDS_P2;PMS_P1;PMS_P2;Temp;Humidity;BMP_temperature;BMP_pressure;BME280_temperature;BME280_humidity;BME280_pressure;Samples;Min_cycle;Max_cycle;Signal;HPM_P1;HPM_P2
2023/08/24 00:01:47;;;;;;;2.60;2.00;;;;;;;27.71;57.46;99371.13;5102391;28;20222;-68
2023/08/24 00:04:15;;;;;;;1.67;1.57;;;;;;;27.58;58.13;99360.19;5093799;28;20599;-68
2023/08/24 00:06:42;;;;;;;1.93;1.83;;;;;;;27.61;58.67;99375.69;5092155;28;20253;-68
2023/08/24 00:09:09;;;;;;;2.03;1.93;;;;;;;27.52;58.13;99377.44;5092318;28;20195;-68
2023/08/24 00:11:36;;;;;;;2.13;1.87;;;;;;;27.57;59.34;99374.31;5091846;28;20594;-68
2023/08/24 00:14:02;;;;;;;2.30;1.40;;;;;;;27.54;59.56;99372.00;5092334;28;20738;-67
2023/08/24 00:16:29;;;;;;;1.90;1.77;;;;;;;27.50;59.07;99365.38;5092583;28;20207;-68
2023/08/24 00:18:56;;;;;;;1.70;1.60;;;;;;;27.46;58.90;99367.53;5091192;28;20640;-68
2023/08/24 00:21:24;;;;;;;3.30;2.27;;;;;;;27.29;59.27;99339.38;5091270;28;20275;-68
2023/08/24 00:23:51;;;;;;;3.67;3.50;;;;;;;27.20;60.40;99345.56;5091395;28;20229;-68
2023/08/24 00:26:19;;;;;;;2.00;1.90;;;;;;;27.29;60.94;99364.88;5091848;28;20245;-68
2023/08/24 00:28:46;;;;;;;1.90;1.67;;;;;;;27.28;60.86;99361.41;5091640;28;20213;-68
2023/08/24 00:31:13;;;;;;;7.87;1.70;;;;;;;27.28;60.76;99363.22;5091726;28;20191;-67
2023/08/24 00:33:40;;;;;;;1.83;1.73;;;;;;;27.26;60.47;99370.47;5091210;28;20203;-68
2023/08/24 00:36:07;;;;;;;1.90;1.80;;;;;;;27.16;60.58;99359.19;5091690;28;20192;-68
2023/08/24 00:38:36;;;;;;;2.40;2.30;;;;;;;27.18;60.69;99373.00;5091773;28;20260;-68
2023/08/24 00:41:03;;;;;;;1.70;1.60;;;;;;;27.17;60.63;99368.75;5093466;28;20236;-68
2023/08/24 00:43:30;;;;;;;1.90;1.70;;;;;;;27.17;59.70;99364.31;5090369;28;20245;-68
2023/08/24 00:46:00;;;;;;;2.00;1.90;;;;;;;27.16;59.68;99359.19;5091495;28;20567;-68
2023/08/24 00:48:28;;;;;;;2.00;1.87;;;;;;;27.14;60.23;99354.88;5092296;28;20648;-67
2023/08/24 00:50:55;;;;;;;2.97;1.97;;;;;;;27.12;59.41;99356.84;5092507;28;20213;-68
2023/08/24 00:53:25;;;;;;;2.17;1.97;;;;;;;27.09;59.80;99359.78;5091556;28;20243;-67
2023/08/24 00:55:54;;;;;;;2.27;2.10;;;;;;;26.86;60.12;99332.28;5091132;28;20286;-68
2023/08/24 00:58:21;;;;;;;2.20;1.97;;;;;;;26.96;60.99;99356.72;5091270;28;20199;-68
2023/08/24 01:00:49;;;;;;;1.90;1.73;;;;;;;26.91;60.78;99355.53;5094515;28;20260;-68
2023/08/24 01:03:16;;;;;;;2.10;1.90;;;;;;;26.85;61.26;99354.31;5091361;28;20196;-67
2023/08/24 01:05:44;;;;;;;9.47;2.37;;;;;;;26.72;61.86;99364.34;5092485;28;20256;-68
2023/08/24 01:08:11;;;;;;;1.90;1.80;;;;;;;26.64;62.24;99364.28;5092095;28;20666;-68
2023/08/24 01:10:45;;;;;;;2.37;2.17;;;;;;;26.60;62.58;99365.53;5091027;28;20215;-68
2023/08/24 01:13:22;;;;;;;2.17;1.83;;;;;;;26.58;63.39;99360.44;5091146;28;20201;-68
2023/08/24 01:15:56;;;;;;;1.50;1.40;;;;;;;26.55;62.62;99365.16;5091116;28;20195;-68
2023/08/24 01:18:26;;;;;;;2.03;1.87;;;;;;;26.53;63.13;99367.09;5091245;28;20197;-68
2023/08/24 01:20:54;;;;;;;1.10;1.10;;;;;;;26.48;63.54;99353.59;5091408;28;20726;-68
2023/08/24 01:23:33;;;;;;;2.20;2.10;;;;;;;26.43;63.78;99340.88;5091066;28;20204;-68
2023/08/24 01:26:08;;;;;;;1.50;1.40;;;;;;;26.45;64.59;99349.44;5091057;28;20289;-68
2023/08/24 01:28:35;;;;;;;1.63;1.60;;;;;;;26.44;64.37;99342.53;5091262;28;20206;-68
2023/08/24 01:31:02;;;;;;;1.90;1.80;;;;;;;26.45;64.19;99354.72;5094621;28;20212;-68
2023/08/24 01:33:28;;;;;;;1.90;1.47;;;;;;;26.44;64.20;99352.22;5090346;28;20195;-68
2023/08/24 01:35:55;;;;;;;8.37;2.37;;;;;;;26.42;64.06;99348.91;5090358;28;20192;-68
2023/08/24 01:38:22;;;;;;;3.07;2.03;;;;;;;26.35;64.49;99337.34;5090983;28;20203;-68
2023/08/24 01:40:57;;;;;;;2.33;2.13;;;;;;;26.35;64.71;99337.34;5090657;28;20191;-68
2023/08/24 01:43:33;;;;;;;1.77;1.57;;;;;;;26.25;64.27;99320.78;5091189;28;20191;-68
2023/08/24 01:46:02;;;;;;;2.23;2.07;;;;;;;26.31;64.97;99328.09;5090826;28;20616;-68
2023/08/24 01:48:30;;;;;;;4.93;1.97;;;;;;;26.24;65.50;99337.53;5094267;28;20231;-68
2023/08/24 01:50:57;;;;;;;2.50;2.30;;;;;;;26.17;65.43;99339.09;5094783;28;20597;-68
2023/08/24 01:53:25;;;;;;;8.97;2.70;;;;;;;26.10;65.82;99333.56;5094918;28;20658;-68
2023/08/24 01:55:53;;;;;;;2.37;2.00;;;;;;;26.10;65.35;99329.16;5095284;28;20200;-68
2023/08/24 01:58:20;;;;;;;1.77;1.67;;;;;;;26.09;65.29;99327.50;5094573;28;20217;-68
2023/08/24 02:00:48;;;;;;;2.37;2.20;;;;;;;26.11;65.21;99324.69;5093510;28;20249;-68
2023/08/24 02:03:14;;;;;;;1.33;1.33;;;;;;;26.06;65.29;99330.41;5093622;28;20265;-68
2023/08/24 02:05:41;;;;;;;1.77;1.67;;;;;;;26.01;66.02;99335.25;5094340;28;20199;-68
2023/08/24 02:08:08;;;;;;;2.17;2.00;;;;;;;25.96;65.99;99340.13;5094307;28;20248;-67
2023/08/24 02:10:35;;;;;;;2.17;2.07;;;;;;;25.84;66.28;99322.09;5094260;28;20222;-68
2023/08/24 02:13:01;;;;;;;2.63;1.93;;;;;;;25.89;66.04;99331.16;5094169;28;20199;-67
2023/08/24 02:15:28;;;;;;;2.77;2.57;;;;;;;25.84;66.23;99327.34;5094254;28;20195;-68
2023/08/24 02:17:56;;;;;;;1.97;1.67;;;;;;;25.80;66.83;99326.78;5094036;28;20203;-68
2023/08/24 02:20:23;;;;;;;2.80;2.60;;;;;;;25.77;67.49;99328.88;5094330;28;20666;-68
2023/08/24 02:22:50;;;;;;;2.23;1.47;;;;;;;25.73;68.02;99330.97;5094147;28;20215;-68
2023/08/24 02:25:16;;;;;;;2.30;2.10;;;;;;;25.72;67.64;99329.28;5094153;28;20199;-68
2023/08/24 02:27:43;;;;;;;4.10;2.40;;;;;;;25.72;67.67;99331.91;5097566;28;20207;-68
2023/08/24 02:30:11;;;;;;;2.50;2.30;;;;;;;25.69;68.25;99334.84;5094877;28;20685;-68
2023/08/24 02:32:37;;;;;;;3.23;1.87;;;;;;;25.61;67.64;99344.41;5096075;28;20196;-68
2023/08/24 02:35:07;;;;;;;1.80;1.70;;;;;;;25.53;68.10;99340.69;5093543;28;20225;-67
2023/08/24 02:37:34;;;;;;;2.07;1.80;;;;;;;25.47;68.73;99350.91;5091217;28;20249;-68
2023/08/24 02:40:00;;;;;;;2.13;1.77;;;;;;;25.41;69.85;99340.97;5093730;28;20199;-67
2023/08/24 02:42:27;;;;;;;1.63;1.53;;;;;;;25.36;70.43;99345.81;5096851;28;20222;-68
2023/08/24 02:44:54;;;;;;;1.77;1.63;;;;;;;25.30;70.50;99339.31;5093621;28;20200;-68
2023/08/24 02:47:20;;;;;;;2.17;2.07;;;;;;;25.28;71.41;99336.03;5098887;28;20207;-68
2023/08/24 02:49:47;;;;;;;2.27;2.07;;;;;;;25.22;71.47;99341.84;5094215;27;20248;-68
2023/08/24 02:52:15;;;;;;;1.70;1.60;;;;;;;25.11;72.36;99338.50;5093017;28;20652;-68
2023/08/24 02:54:42;;;;;;;2.60;2.40;;;;;;;25.07;72.75;99333.53;5093126;28;20687;-68
2023/08/24 02:57:09;;;;;;;1.97;1.60;;;;;;;25.04;73.16;99339.06;5093454;28;20199;-68
2023/08/24 02:59:35;;;;;;;4.80;1.70;;;;;;;25.00;73.37;99344.75;5093267;28;20195;-68
2023/08/24 03:02:02;;;;;;;2.90;2.10;;;;;;;24.93;73.64;99341.84;5092901;28;20218;-68
2023/08/24 03:04:29;;;;;;;1.93;1.70;;;;;;;24.89;74.23;99340.47;5093016;28;20200;-68
2023/08/24 03:06:56;;;;;;;1.90;1.80;;;;;;;24.90;73.94;99338.69;5093198;28;20252;-68
2023/08/24 03:09:24;;;;;;;2.77;2.67;;;;;;;24.88;73.92;99332.75;5093400;28;20809;-68
2023/08/24 03:11:51;;;;;;;2.30;2.00;;;;;;;24.90;74.29;99339.50;5093344;28;20219;-68
2023/08/24 03:14:18;;;;;;;2.43;2.33;;;;;;;24.88;74.01;99338.81;5092373;28;20253;-67
2023/08/24 03:16:45;;;;;;;2.83;2.63;;;;;;;24.85;74.56;99341.69;5092213;28;20207;-67
2023/08/24 03:19:14;;;;;;;2.03;1.90;;;;;;;24.81;74.06;99337.69;5092885;28;20195;-68
2023/08/24 03:21:41;;;;;;;2.10;2.00;;;;;;;24.73;74.97;99337.53;5092950;28;20199;-68
2023/08/24 03:24:07;;;;;;;2.13;2.03;;;;;;;24.71;75.10;99347.34;5093091;28;20191;-68
2023/08/24 03:26:35;;;;;;;2.60;2.43;;;;;;;24.62;76.27;99353.38;5092534;28;20200;-68
2023/08/24 03:29:02;;;;;;;2.67;2.47;;;;;;;24.53;76.89;99349.78;5092866;28;20199;-68
2023/08/24 03:31:29;;;;;;;2.23;1.93;;;;;;;24.40;77.11;99348.38;5091993;28;20793;-68
2023/08/24 03:33:56;;;;;;;1.87;1.77;;;;;;;24.28;77.70;99354.69;5092823;28;20663;-68
2023/08/24 03:36:22;;;;;;;7.77;3.13;;;;;;;24.18;78.45;99348.59;5092506;28;20248;-68
2023/08/24 03:38:49;;;;;;;2.70;2.50;;;;;;;24.18;78.64;99356.47;5092453;28;20203;-67
2023/08/24 03:41:16;;;;;;;2.87;2.73;;;;;;;24.11;78.95;99347.44;5092774;28;20740;-67
2023/08/24 03:43:44;;;;;;;2.77;2.20;;;;;;;23.96;79.53;99339.97;5096687;28;20229;-68
2023/08/24 03:46:11;;;;;;;10.70;2.27;;;;;;;24.03;79.61;99356.81;5095778;28;20191;-68
2023/08/24 03:48:37;;;;;;;4.00;2.10;;;;;;;23.96;80.16;99366.16;5092197;28;20252;-68
2023/08/24 03:51:04;;;;;;;2.67;2.47;;;;;;;23.90;80.59;99366.69;5092728;28;20667;-68
2023/08/24 03:53:32;;;;;;;3.67;2.77;;;;;;;23.86;80.46;99364.44;5092357;28;20187;-67
2023/08/24 03:55:59;;;;;;;11.13;2.67;;;;;;;23.90;80.62;99377.16;5093477;28;20195;-68
2023/08/24 03:58:25;;;;;;;5.83;2.33;;;;;;;23.93;80.62;99376.88;5092854;28;20245;-67
2023/08/24 04:00:54;;;;;;;2.57;2.23;;;;;;;23.98;80.69;99379.94;5092783;28;20618;-68
2023/08/24 04:03:20;;;;;;;2.40;2.30;;;;;;;24.09;80.13;99378.19;5092551;28;20607;-68
2023/08/24 04:05:47;;;;;;;2.03;1.93;;;;;;;24.14;79.65;99378.63;5090420;28;20207;-68
2023/08/24 04:08:14;;;;;;;1.90;1.80;;;;;;;24.15;79.64;99380.31;5092095;28;20260;-68
2023/08/24 04:10:41;;;;;;;3.37;2.73;;;;;;;24.16;79.38;99371.50;5090829;28;20724;-68
2023/08/24 04:13:07;;;;;;;3.67;2.17;;;;;;;24.16;79.22;99371.50;5091635;28;20203;-67
2023/08/24 04:15:34;;;;;;;3.93;2.27;;;;;;;24.15;79.19;99377.69;5091365;28;20244;-68
2023/08/24 04:18:02;;;;;;;2.13;2.03;;;;;;;24.20;79.53;99383.38;5092107;28;20203;-68
2023/08/24 04:20:32;;;;;;;4.00;2.70;;;;;;;24.21;80.15;99370.13;5091481;28;20663;-68
2023/08/24 04:22:58;;;;;;;3.07;1.87;;;;;;;24.35;79.17;99382.03;5090523;28;20215;-68
2023/08/24 04:25:25;;;;;;;3.13;1.60;;;;;;;24.46;79.24;99380.13;5092150;28;20268;-68
2023/08/24 04:27:52;;;;;;;2.60;2.50;;;;;;;24.54;78.33;99376.84;5091263;28;20842;-67
2023/08/24 04:30:19;;;;;;;2.63;2.43;;;;;;;24.62;77.04;99378.78;5090446;28;20256;-68
2023/08/24 04:32:46;;;;;;;2.47;2.17;;;;;;;24.71;78.33;99384.06;5088122;28;20207;-67
2023/08/24 04:35:14;;;;;;;2.47;2.17;;;;;;;24.78;77.73;99385.13;5091142;28;20203;-67
2023/08/24 04:37:41;;;;;;;2.27;2.17;;;;;;;24.84;76.08;99395.13;5090616;28;20257;-68
2023/08/24 04:40:08;;;;;;;3.00;2.13;;;;;;;24.96;76.18;99399.28;5090774;28;20675;-67
2023/08/24 04:42:35;;;;;;;2.40;2.20;;;;;;;25.00;75.21;99399.84;5090485;28;20371;-68
2023/08/24 04:45:01;;;;;;;2.40;2.30;;;;;;;25.08;74.66;99398.19;5098947;28;20195;-67
2023/08/24 04:47:28;;;;;;;2.03;1.93;;;;;;;25.15;75.16;99398.44;5093698;28;20294;-68
2023/08/24 04:49:55;;;;;;;1.93;1.83;;;;;;;25.19;74.67;99404.25;5093313;28;20239;-67
2023/08/24 04:52:24;;;;;;;6.17;2.67;;;;;;;25.22;74.87;99401.34;5090630;28;20678;-67
2023/08/24 04:54:50;;;;;;;3.90;2.43;;;;;;;25.27;75.13;99401.75;5095083;28;20203;-68
2023/08/24 04:57:17;;;;;;;2.30;1.60;;;;;;;25.30;75.22;99398.88;5091641;28;20666;-68
2023/08/24 04:59:44;;;;;;;2.57;2.47;;;;;;;25.43;75.49;99408.09;5090016;28;20256;-68
2023/08/24 05:02:11;;;;;;;2.50;2.30;;;;;;;25.41;75.39;99394.28;5091288;28;20682;-68
2023/08/24 05:04:38;;;;;;;1.87;1.77;;;;;;;25.62;75.38;99396.78;5091976;28;20260;-67
2023/08/24 05:07:04;;;;;;;5.53;1.37;;;;;;;25.63;74.10;99387.09;5089762;28;20191;-67
2023/08/24 05:09:32;;;;;;;2.00;1.90;;;;;;;25.72;75.10;99402.03;5091564;28;20261;-67
2023/08/24 05:11:59;;;;;;;1.83;1.73;;;;;;;25.86;74.88;99394.50;5094858;28;20300;-67
2023/08/24 05:14:26;;;;;;;1.70;1.60;;;;;;;26.00;72.84;99395.84;5092892;28;20256;-67
2023/08/24 05:16:52;;;;;;;1.80;1.70;;;;;;;26.03;72.82;99399.00;5092638;28;20625;-68
2023/08/24 05:19:19;;;;;;;2.50;2.10;;;;;;;26.07;73.21;99397.72;5092295;28;20199;-72
2023/08/24 05:21:46;;;;;;;1.90;1.80;;;;;;;26.12;72.25;99399.94;5093363;28;20647;-67
2023/08/24 05:24:13;;;;;;;2.37;2.17;;;;;;;26.19;72.07;99408.09;5097186;28;20673;-67
2023/08/24 05:26:41;;;;;;;2.27;2.07;;;;;;;26.29;71.34;99417.63;5100096;28;20252;-70
2023/08/24 05:29:08;;;;;;;1.97;1.87;;;;;;;26.36;70.12;99408.19;5105572;28;20698;-70
2023/08/24 05:31:35;;;;;;;1.97;1.87;;;;;;;26.40;70.28;99413.94;5104477;28;20195;-70
2023/08/24 05:34:01;;;;;;;2.20;1.87;;;;;;;26.41;69.90;99405.91;5098234;28;20195;-70
2023/08/24 05:36:28;;;;;;;2.57;1.80;;;;;;;26.47;70.17;99410.59;5103645;28;20299;-70
2023/08/24 05:38:56;;;;;;;3.30;2.07;;;;;;;26.58;69.99;99417.47;5096712;28;20207;-70
2023/08/24 05:41:23;;;;;;;2.33;2.23;;;;;;;26.65;69.79;99409.81;5100655;28;20200;-70
2023/08/24 05:43:52;;;;;;;2.13;2.03;;;;;;;26.69;70.26;99404.09;5106437;28;20223;-70
2023/08/24 05:46:19;;;;;;;2.03;1.93;;;;;;;26.77;70.29;99401.56;5103354;28;20286;-69
2023/08/24 05:48:45;;;;;;;3.37;2.57;;;;;;;26.85;70.69;99401.66;5097439;28;20200;-70
2023/08/24 05:51:12;;;;;;;4.20;3.00;;;;;;;26.87;69.11;99401.53;5103261;28;20263;-70
2023/08/24 05:53:40;;;;;;;2.80;1.80;;;;;;;26.87;69.63;99402.34;5104094;28;20190;-69
2023/08/24 05:56:07;;;;;;;2.23;2.13;;;;;;;26.85;69.24;99400.84;5103225;28;20195;-70
2023/08/24 05:58:34;;;;;;;2.40;2.20;;;;;;;26.88;70.27;99409.25;5102331;28;20206;-70
2023/08/24 06:01:02;;;;;;;1.97;1.77;;;;;;;27.01;71.83;99409.72;5096419;28;20191;-70
2023/08/24 06:03:28;;;;;;;8.07;1.90;;;;;;;27.20;69.88;99402.66;5109833;28;20275;-70
2023/08/24 06:06:01;;;;;;;1.93;1.83;;;;;;;27.36;68.47;99406.25;5103544;28;20268;-68
2023/08/24 06:08:28;;;;;;;2.20;2.07;;;;;;;27.52;66.76;99408.22;5100319;28;20196;-68
2023/08/24 06:10:54;;;;;;;1.90;1.80;;;;;;;27.63;67.45;99402.69;5095623;28;20319;-66
2023/08/24 06:13:21;;;;;;;2.77;1.50;;;;;;;27.64;64.98;99406.97;5096550;28;20899;-65
2023/08/24 06:15:48;;;;;;;2.50;2.40;;;;;;;27.64;64.92;99402.53;5102007;28;20203;-65
2023/08/24 06:18:16;;;;;;;2.30;2.20;;;;;;;27.74;65.68;99412.97;5105265;28;20200;-65
2023/08/24 06:20:42;;;;;;;2.60;1.97;;;;;;;27.76;64.96;99413.63;5102756;28;20290;-65
2023/08/24 06:23:09;;;;;;;4.17;2.10;;;;;;;27.77;64.33;99417.94;5101550;28;20264;-66
2023/08/24 06:25:36;;;;;;;1.90;1.80;;;;;;;27.79;63.27;99418.59;5101714;28;20256;-66
2023/08/24 06:28:04;;;;;;;1.43;1.33;;;;;;;27.83;64.06;99419.09;5109017;28;20696;-66
2023/08/24 06:30:36;;;;;;;2.63;2.27;;;;;;;27.85;64.57;99417.16;5104826;28;20290;-66
2023/08/24 06:33:04;;;;;;;1.87;1.77;;;;;;;27.85;66.53;99425.88;5098905;28;20204;-67
2023/08/24 06:35:32;;;;;;;2.40;2.10;;;;;;;27.87;66.34;99423.94;5099668;28;20199;-67
2023/08/24 06:37:59;;;;;;;2.37;2.20;;;;;;;27.90;65.89;99420.97;5102388;28;20627;-67
2023/08/24 06:40:26;;;;;;;2.67;2.00;;;;;;;27.94;65.87;99424.13;5092922;28;20249;-67
2023/08/24 06:42:52;;;;;;;2.47;2.27;;;;;;;27.91;64.32;99435.81;5098439;28;20215;-67
2023/08/24 06:45:19;;;;;;;1.80;1.70;;;;;;;27.94;63.03;99446.03;5093973;28;20205;-66
2023/08/24 06:47:46;;;;;;;2.10;1.90;;;;;;;27.87;62.33;99466.09;5094452;28;20200;-62
2023/08/24 06:50:13;;;;;;;2.07;1.93;;;;;;;27.56;63.12;99463.03;5102305;28;20738;-62
2023/08/24 06:52:41;;;;;;;2.63;2.43;;;;;;;27.16;65.43;99475.81;5100318;28;20195;-63
2023/08/24 06:55:10;;;;;;;4.93;2.37;;;;;;;27.09;65.51;99490.56;5102916;28;20203;-65
2023/08/24 06:57:37;;;;;;;2.33;1.67;;;;;;;26.97;65.41;99510.16;5098327;28;20241;-63
2023/08/24 07:00:07;;;;;;;3.20;2.17;;;;;;;26.88;65.88;99513.69;5095085;28;20199;-64
2023/08/24 07:02:34;;;;;;;8.87;1.97;;;;;;;26.88;67.95;99514.47;5097741;28;20268;-63
2023/08/24 07:05:01;;;;;;;5.27;1.50;;;;;;;26.81;75.09;99537.13;5096052;28;20191;-63
2023/08/24 07:07:30;;;;;;;2.90;2.57;;;;;;;26.57;83.47;99532.34;5096252;28;20228;-64
2023/08/24 07:09:58;;;;;;;2.87;2.67;;;;;;;26.27;96.26;99485.25;5098078;28;20298;-63
2023/08/24 07:12:25;;;;;;;4.67;3.73;;;;;;;25.68;100.00;99447.91;5098090;28;20203;-64
2023/08/24 07:14:52;;;;;;;2.63;2.37;;;;;;;24.89;100.00;99387.69;5093866;28;20192;-64
2023/08/24 07:17:19;;;;;;;4.20;2.47;;;;;;;24.15;100.00;99386.38;5095404;28;20199;-70
2023/08/24 07:19:45;;;;;;;6.10;1.83;;;;;;;23.92;100.00;99392.72;5103617;28;20286;-72
2023/08/24 07:22:12;;;;;;;2.20;2.03;;;;;;;23.71;100.00;99371.81;5100878;28;20200;-74
2023/08/24 07:24:39;;;;;;;1.87;1.77;;;;;;;23.84;100.00;99390.75;5094746;28;20211;-79
2023/08/24 07:27:08;;;;;;;2.90;2.27;;;;;;;23.97;100.00;99399.22;5098224;28;20578;-66
2023/08/24 07:29:35;;;;;;;1.73;1.63;;;;;;;24.03;100.00;99392.63;5096969;28;20209;-67
2023/08/24 07:32:02;;;;;;;1.57;1.40;;;;;;;24.19;100.00;99400.03;5100224;28;20195;-67
2023/08/24 07:34:29;;;;;;;1.83;1.73;;;;;;;24.33;100.00;99415.41;5096400;28;20195;-67
2023/08/24 07:36:56;;;;;;;2.70;2.50;;;;;;;24.46;100.00;99410.72;5098384;28;20207;-67
2023/08/24 07:39:23;;;;;;;2.43;2.03;;;;;;;24.63;100.00;99431.06;5102251;28;20200;-67
2023/08/24 07:41:50;;;;;;;1.67;1.57;;;;;;;24.63;100.00;99454.66;5096795;28;20191;-65
2023/08/24 07:44:18;;;;;;;2.23;2.13;;;;;;;24.77;100.00;99441.19;5098444;28;20256;-66
2023/08/24 07:46:45;;;;;;;5.03;2.30;;;;;;;24.93;100.00;99431.03;5094824;28;20206;-66
2023/08/24 07:49:11;;;;;;;2.00;1.60;;;;;;;24.84;100.00;99426.59;5096471;28;20207;-65
2023/08/24 07:51:38;;;;;;;2.57;2.30;;;;;;;25.04;100.00;99428.25;5103707;28;20191;-65
2023/08/24 07:54:06;;;;;;;2.17;1.97;;;;;;;25.30;100.00;99418.06;5100280;28;20200;-66
2023/08/24 07:56:33;;;;;;;2.03;1.83;;;;;;;25.61;100.00;99420.53;5092049;28;20679;-65
2023/08/24 07:59:00;;;;;;;3.03;2.30;;;;;;;25.97;100.00;99425.88;5100321;28;20199;-66
2023/08/24 08:01:28;;;;;;;3.10;2.60;;;;;;;26.37;100.00;99424.75;5100398;28;20616;-65
2023/08/24 08:03:55;;;;;;;1.97;1.83;;;;;;;26.72;100.00;99427.47;5099999;28;20215;-66
2023/08/24 08:06:24;;;;;;;2.70;2.03;;;;;;;27.02;100.00;99427.16;5092841;28;20217;-67
2023/08/24 08:08:51;;;;;;;4.50;2.33;;;;;;;27.30;100.00;99430.56;5092493;28;20196;-67
2023/08/24 08:11:18;;;;;;;2.10;1.90;;;;;;;27.46;100.00;99429.88;5101496;28;20219;-66
2023/08/24 08:13:45;;;;;;;1.97;1.87;;;;;;;27.58;100.00;99440.03;5095134;28;20194;-66
2023/08/24 08:16:11;;;;;;;2.53;2.33;;;;;;;27.67;100.00;99437.44;5092226;28;20211;-66
2023/08/24 08:18:40;;;;;;;2.50;1.70;;;;;;;27.96;100.00;99448.50;5098428;28;20272;-65
2023/08/24 08:21:11;;;;;;;3.03;1.80;;;;;;;28.11;100.00;99452.28;5093318;28;20260;-66
2023/08/24 08:23:38;;;;;;;1.87;1.60;;;;;;;28.24;100.00;99447.38;5095369;28;20242;-65
2023/08/24 08:26:04;;;;;;;3.30;2.30;;;;;;;28.41;100.00;99437.72;5091222;28;20248;-65
2023/08/24 08:28:33;;;;;;;2.23;2.03;;;;;;;28.54;100.00;99432.84;5094286;28;20624;-65
2023/08/24 08:31:00;;;;;;;2.17;1.67;;;;;;;28.61;97.00;99439.13;5094695;28;20206;-65
2023/08/24 08:33:26;;;;;;;8.77;1.70;;;;;;;28.66;92.75;99447.41;5094424;28;20667;-65
2023/08/24 08:35:55;;;;;;;1.77;1.60;;;;;;;28.76;92.06;99431.47;5094700;28;20195;-65
2023/08/24 08:38:25;;;;;;;2.17;1.70;;;;;;;28.85;90.35;99433.97;5091071;28;20206;-66
2023/08/24 08:40:54;;;;;;;1.80;1.70;;;;;;;28.97;90.32;99434.47;5099983;28;20681;-66
2023/08/24 08:43:22;;;;;;;1.83;1.73;;;;;;;28.98;85.28;99425.56;5091877;28;20206;-66
2023/08/24 08:45:50;;;;;;;2.07;1.97;;;;;;;28.71;90.24;99423.19;5090613;28;20199;-66
2023/08/24 08:48:17;;;;;;;3.67;2.17;;;;;;;28.73;93.38;99421.22;5091457;28;20204;-66
2023/08/24 08:50:43;;;;;;;1.57;1.47;;;;;;;28.83;91.45;99425.38;5091426;28;20212;-66
2023/08/24 08:53:11;;;;;;;2.83;2.63;;;;;;;28.88;93.03;99415.16;5097441;28;20198;-65
2023/08/24 08:55:40;;;;;;;1.90;1.80;;;;;;;28.88;92.05;99415.16;5091567;28;20199;-66
2023/08/24 08:58:07;;;;;;;2.92;2.67;;;;;;;28.89;91.87;99416.81;5091554;28;20343;-65
2023/08/24 09:00:35;;;;;;;5.23;2.17;;;;;;;28.84;90.20;99407.72;5093442;28;20578;-66
2023/08/24 09:03:04;;;;;;;5.20;1.83;;;;;;;28.92;89.36;99415.69;5093101;28;20248;-66
2023/08/24 09:05:32;;;;;;;2.17;2.00;;;;;;;28.95;87.54;99404.78;5090371;28;20690;-66
2023/08/24 09:07:59;;;;;;;2.20;1.88;;;;;;;29.02;89.86;99411.03;5093488;28;20199;-69
2023/08/24 09:10:27;;;;;;;1.70;1.60;;;;;;;29.00;89.79;99403.31;5097249;28;20234;-66
2023/08/24 09:12:54;;;;;;;2.63;2.43;;;;;;;29.14;89.04;99410.56;5090298;28;20191;-66
2023/08/24 09:15:36;;;;;;;5.63;2.57;;;;;;;29.31;91.52;99413.22;5092468;28;20195;-66
2023/08/24 09:18:03;;;;;;;2.30;2.20;;;;;;;29.39;85.86;99407.97;5089789;28;20217;-65
2023/08/24 09:20:30;;;;;;;2.40;2.17;;;;;;;29.46;85.73;99419.53;5091090;28;20738;-66
2023/08/24 09:22:57;;;;;;;2.72;1.80;;;;;;;29.47;85.57;99405.31;5092177;28;20222;-66
2023/08/24 09:25:24;;;;;;;2.33;2.22;;;;;;;29.57;85.54;99408.59;5093363;28;20230;-66
2023/08/24 09:27:58;;;;;;;3.92;2.28;;;;;;;29.68;83.57;99408.28;5093375;28;20668;-66
2023/08/24 09:30:30;;;;;;;3.90;2.55;;;;;;;29.69;85.38;99394.06;5091301;28;20758;-66
2023/08/24 09:33:01;;;;;;;2.97;2.78;;;;;;;29.84;87.46;99407.44;5091551;28;20582;-66
2023/08/24 09:35:28;;;;;;;2.05;1.95;;;;;;;29.84;86.20;99391.59;5091674;28;20191;-70
2023/08/24 09:37:55;;;;;;;2.97;2.72;;;;;;;29.95;83.13;99392.03;5091021;28;20199;-66
2023/08/24 09:40:25;;;;;;;2.70;2.47;;;;;;;30.06;83.65;99377.63;5088132;28;20294;-65
2023/08/24 09:42:52;;;;;;;5.28;2.53;;;;;;;30.31;84.04;99399.53;5091485;28;20195;-66
2023/08/24 09:45:20;;;;;;;2.97;2.63;;;;;;;30.34;84.58;99378.03;5089873;28;20768;-65
2023/08/24 09:47:50;;;;;;;4.38;2.53;;;;;;;30.54;78.66;99389.84;5088472;28;20655;-66
2023/08/24 09:50:16;;;;;;;4.22;1.63;;;;;;;30.78;78.44;99387.06;5091338;28;20679;-65
2023/08/24 09:52:43;;;;;;;2.15;1.95;;;;;;;30.87;77.25;99364.81;5090651;28;20204;-65
2023/08/24 09:55:12;;;;;;;1.80;1.70;;;;;;;31.05;83.21;99389.22;5086067;28;20245;-66
2023/08/24 09:57:40;;;;;;;4.07;1.48;;;;;;;31.08;80.48;99390.69;5088307;28;20264;-66
2023/08/24 10:00:11;;;;;;;1.58;1.50;;;;;;;31.31;78.27;99398.63;5088676;28;20200;-66
2023/08/24 10:02:49;;;;;;;2.15;2.05;;;;;;;31.52;76.75;99396.13;5087007;28;20598;-65
2023/08/24 10:05:21;;;;;;;1.67;1.58;;;;;;;31.67;75.53;99404.94;5086143;28;20243;-66
2023/08/24 10:07:51;;;;;;;3.65;2.60;;;;;;;31.80;78.43;99389.22;5090367;28;20270;-65
2023/08/24 10:10:20;;;;;;;1.58;1.48;;;;;;;31.81;77.52;99390.06;5091795;28;20235;-65
2023/08/24 10:12:51;;;;;;;2.40;2.28;;;;;;;31.76;76.20;99382.66;5091808;28;20608;-66
2023/08/24 10:15:19;;;;;;;2.53;2.10;;;;;;;31.72;77.31;99365.47;5089888;28;20199;-66
2023/08/24 10:17:48;;;;;;;2.42;2.10;;;;;;;31.93;76.33;99376.16;5092343;28;20211;-66
2023/08/24 10:20:16;;;;;;;2.95;2.25;;;;;;;32.05;77.75;99373.91;5090259;28;20293;-66
2023/08/24 10:22:43;;;;;;;2.75;2.55;;;;;;;32.10;75.93;99364.38;5092730;28;20226;-65
2023/08/24 10:25:11;;;;;;;2.15;2.05;;;;;;;32.08;72.50;99353.16;5092408;28;20582;-66
2023/08/24 10:27:43;;;;;;;1.38;1.27;;;;;;;32.15;68.76;99356.69;5089673;28;20298;-65
2023/08/24 10:30:12;;;;;;;1.42;1.33;;;;;;;32.18;68.12;99351.00;5090795;28;20242;-65
2023/08/24 10:32:40;;;;;;;1.42;1.33;;;;;;;32.20;70.27;99342.88;5091243;28;20211;-66
2023/08/24 10:35:09;;;;;;;2.10;2.00;;;;;;;32.16;71.60;99337.13;5092244;28;20195;-66
2023/08/24 10:37:36;;;;;;;1.90;1.80;;;;;;;32.12;72.32;99335.84;5090690;28;20260;-66
2023/08/24 10:40:03;;;;;;;1.40;1.30;;;;;;;32.19;71.02;99331.44;5087390;28;20244;-65
2023/08/24 10:42:44;;;;;;;2.33;2.15;;;;;;;32.37;73.10;99323.09;5092726;28;20674;-65
2023/08/24 10:45:12;;;;;;;1.48;1.38;;;;;;;32.51;73.84;99330.16;5092503;28;20284;-65
2023/08/24 10:47:46;;;;;;;1.60;1.50;;;;;;;32.59;71.49;99323.94;5092256;28;20196;-66
2023/08/24 10:50:15;;;;;;;2.03;1.92;;;;;;;32.68;64.78;99310.38;5092202;28;20207;-65
2023/08/24 10:52:45;;;;;;;1.75;1.65;;;;;;;32.95;64.99;99311.44;5092211;28;20231;-65
2023/08/24 10:55:25;;;;;;;2.25;2.05;;;;;;;33.14;64.75;99309.97;5092163;28;20199;-64
2023/08/24 10:57:58;;;;;;;2.05;1.90;;;;;;;33.20;68.85;99302.06;5092216;28;20220;-65
2023/08/24 11:00:28;;;;;;;2.20;1.70;;;;;;;33.19;67.35;99303.06;5090746;28;20199;-65
2023/08/24 11:02:55;;;;;;;6.00;1.90;;;;;;;33.21;61.55;99294.91;5092490;28;20290;-65
2023/08/24 11:05:27;;;;;;;1.92;1.83;;;;;;;33.35;61.95;99295.78;5090978;28;20219;-66
2023/08/24 11:07:56;;;;;;;2.08;1.88;;;;;;;33.53;60.06;99282.84;5090601;28;20203;-66
2023/08/24 11:10:24;;;;;;;1.50;1.40;;;;;;;33.78;61.45;99276.03;5092806;28;20261;-60
2023/08/24 11:13:08;;;;;;;1.85;1.75;;;;;;;33.92;64.75;99277.75;5091416;28;21527;-60
2023/08/24 11:15:38;;;;;;;3.75;2.30;;;;;;;33.85;63.39;99265.44;5100888;28;20203;-60
2023/08/24 11:18:15;;;;;;;2.00;1.90;;;;;;;33.79;63.12;99256.41;5093451;28;20319;-61
2023/08/24 11:20:45;;;;;;;2.58;1.85;;;;;;;33.88;62.70;99260.53;5096032;28;20210;-61
2023/08/24 11:23:12;;;;;;;2.25;2.15;;;;;;;33.89;63.67;99253.38;5100553;28;20198;-60
2023/08/24 11:25:39;;;;;;;2.47;2.28;;;;;;;33.98;59.97;99254.84;5102171;28;20221;-60
2023/08/24 11:28:06;;;;;;;2.17;2.08;;;;;;;34.06;66.76;99244.84;5098387;28;20716;-61
2023/08/24 11:30:34;;;;;;;2.40;2.20;;;;;;;34.13;61.32;99239.56;5100724;28;20203;-61
2023/08/24 11:33:01;;;;;;;2.33;2.22;;;;;;;34.23;61.88;99232.84;5098204;28;20667;-61
2023/08/24 11:35:28;;;;;;;2.65;2.03;;;;;;;34.26;61.69;99227.09;5098120;28;20241;-62